Arrantzale — EBVT — position and weather

sailwx.info

Track history (hours):
 
Tides and Currents Weather Stations Pressure Air Temp Water Temp Dewpoint Dewpoint Depression Visibility Wind Speed Wind Dir Waves Ship Positions

Arrantzale

Last reported at 2014-Nov-21 08:09 UTC. Time now 2014-Nov-23 10:58 UTC.
Position N 43°23' W 001°48'.

Length 32 m.

Type: Fishing. MMSI: 224065290.

Date/timePositionNaut miles runAvg speedWind from/ knotsBaromVisibWave heightAir tempDewpointWater temp
2014-Nov-21 08:09N 43°23' W 001°48'0 0.0
2014-Nov-21 07:31N 43°23' W 001°48'0 0.0
2014-Nov-21 06:33N 43°23' W 001°48'7 7.4
2014-Nov-21 05:33N 43°31' W 001°48'9 9.0
2014-Nov-21 04:34N 43°39' W 001°47'9 9.2
2014-Nov-21 03:33N 43°49' W 001°45'10 9.8
2014-Nov-21 02:34N 43°58' W 001°43'10 9.8
2014-Nov-21 01:33N 44°08' W 001°41'10 9.5
2014-Nov-21 00:33N 44°17' W 001°39'8 8.4
2014-Nov-20 23:33N 44°26' W 001°37'1 0.5
2014-Nov-20 22:33N 44°25' W 001°37'1 1.1
2014-Nov-20 21:34N 44°24' W 001°37'0 0.5
2014-Nov-20 20:33N 44°24' W 001°37'0 0.4
2014-Nov-20 19:28N 44°23' W 001°36'4 3.6
2014-Nov-20 18:25N 44°20' W 001°37'8 9.9
2014-Nov-20 17:33N 44°11' W 001°39'1110.9
2014-Nov-20 16:33N 44°00' W 001°41'38 7.5
2014-Nov-20 11:33N 43°23' W 001°47'0 0.0
2014-Nov-20 09:32N 43°23' W 001°47'0 0.1
2014-Nov-20 08:30N 43°23' W 001°47'0 0.1
2014-Nov-20 07:32N 43°23' W 001°48'0 0.0
2014-Nov-20 06:32N 43°23' W 001°48'2 1.9
2014-Nov-20 05:33N 43°25' W 001°47'10 9.9
2014-Nov-20 04:33N 43°35' W 001°46'11 9.5
2014-Nov-20 03:27N 43°45' W 001°44'910.0
2014-Nov-20 02:33N 43°54' W 001°43'10 9.8
2014-Nov-20 01:33N 44°04' W 001°40'10 9.7
2014-Nov-20 00:32N 44°14' W 001°39'5 5.5
2014-Nov-19 23:33N 44°19' W 001°38'1 0.8
2014-Nov-19 22:33N 44°19' W 001°37'0 0.3
2014-Nov-19 21:28N 44°18' W 001°37'5 5.3
2014-Nov-19 20:33N 44°13' W 001°37'1 0.7
2014-Nov-19 19:31N 44°13' W 001°37'0 0.2
2014-Nov-19 18:34N 44°13' W 001°37'11 9.5
2014-Nov-19 17:23N 44°01' W 001°38'38 1.5
2014-Nov-18 15:13N 43°24' W 001°47'1 1.2
2014-Nov-18 14:26N 43°23' W 001°47'  
2014-Nov-14 10:11N 43°23' W 001°47'1110.2
2014-Nov-14 09:09N 43°33' W 001°44'710.4
2014-Nov-14 08:26N 43°40' W 001°41'18 1.2
2014-Nov-13 17:06N 43°23' W 001°47'0 0.0
2014-Nov-13 08:03N 43°23' W 001°48'0 0.0
2014-Nov-13 04:29N 43°23' W 001°48'1 0.0
2014-Nov-12 14:26N 43°23' W 001°47'  
Track history (hours):
 
Tides and Currents Weather Stations Pressure Air Temp Water Temp Dewpoint Dewpoint Depression Visibility Wind Speed Wind Dir Waves Ship Positions

Arrantzale

Last reported at 2014-Nov-21 08:09 UTC. Time now 2014-Nov-23 10:58 UTC.
Position N 43°23' W 001°48'.

Length 32 m.

Type: Fishing. MMSI: 224065290.

Date/timePositionNaut miles runAvg speedWind from/ knotsBaromVisibWave heightAir tempDewpointWater temp
2014-Nov-21 08:09N 43°23' W 001°48'0 0.0
2014-Nov-21 07:31N 43°23' W 001°48'0 0.0
2014-Nov-21 06:33N 43°23' W 001°48'7 7.4
2014-Nov-21 05:33N 43°31' W 001°48'9 9.0
2014-Nov-21 04:34N 43°39' W 001°47'9 9.2
2014-Nov-21 03:33N 43°49' W 001°45'10 9.8
2014-Nov-21 02:34N 43°58' W 001°43'10 9.8
2014-Nov-21 01:33N 44°08' W 001°41'10 9.5
2014-Nov-21 00:33N 44°17' W 001°39'8 8.4
2014-Nov-20 23:33N 44°26' W 001°37'1 0.5
2014-Nov-20 22:33N 44°25' W 001°37'1 1.1
2014-Nov-20 21:34N 44°24' W 001°37'0 0.5
2014-Nov-20 20:33N 44°24' W 001°37'0 0.4
2014-Nov-20 19:28N 44°23' W 001°36'4 3.6
2014-Nov-20 18:25N 44°20' W 001°37'8 9.9
2014-Nov-20 17:33N 44°11' W 001°39'1110.9
2014-Nov-20 16:33N 44°00' W 001°41'38 7.5
2014-Nov-20 11:33N 43°23' W 001°47'0 0.0
2014-Nov-20 09:32N 43°23' W 001°47'0 0.1
2014-Nov-20 08:30N 43°23' W 001°47'0 0.1
2014-Nov-20 07:32N 43°23' W 001°48'0 0.0
2014-Nov-20 06:32N 43°23' W 001°48'2 1.9
2014-Nov-20 05:33N 43°25' W 001°47'10 9.9
2014-Nov-20 04:33N 43°35' W 001°46'11 9.5
2014-Nov-20 03:27N 43°45' W 001°44'910.0
2014-Nov-20 02:33N 43°54' W 001°43'10 9.8
2014-Nov-20 01:33N 44°04' W 001°40'10 9.7
2014-Nov-20 00:32N 44°14' W 001°39'5 5.5
2014-Nov-19 23:33N 44°19' W 001°38'1 0.8
2014-Nov-19 22:33N 44°19' W 001°37'0 0.3
2014-Nov-19 21:28N 44°18' W 001°37'5 5.3
2014-Nov-19 20:33N 44°13' W 001°37'1 0.7
2014-Nov-19 19:31N 44°13' W 001°37'0 0.2
2014-Nov-19 18:34N 44°13' W 001°37'11 9.5
2014-Nov-19 17:23N 44°01' W 001°38'38 1.5
2014-Nov-18 15:13N 43°24' W 001°47'1 1.2
2014-Nov-18 14:26N 43°23' W 001°47'  
2014-Nov-14 10:11N 43°23' W 001°47'1110.2
2014-Nov-14 09:09N 43°33' W 001°44'710.4
2014-Nov-14 08:26N 43°40' W 001°41'18 1.2
2014-Nov-13 17:06N 43°23' W 001°47'0 0.0
2014-Nov-13 08:03N 43°23' W 001°48'0 0.0
2014-Nov-13 04:29N 43°23' W 001°48'1 0.0
2014-Nov-12 14:26N 43°23' W 001°47'  

Dump ship's entire track history